createdAt,value
2019-03-18T00:00:01.597Z,5.20
2019-03-18T00:02:32.398Z,5.10
2019-03-18T00:05:02.953Z,5.20
2019-03-18T00:07:52.777Z,5.30
2019-03-18T00:10:24.134Z,5.10
2019-03-18T00:12:55.286Z,5.10
2019-03-18T00:15:26.496Z,5.20
2019-03-18T00:17:57.020Z,5.10
2019-03-18T00:20:27.414Z,5.10
2019-03-18T00:22:58.801Z,5.20
2019-03-18T00:25:29.287Z,5.20
2019-03-18T00:27:59.672Z,5.10
2019-03-18T00:30:31.142Z,5.10
2019-03-18T00:33:03.325Z,5.10
2019-03-18T00:35:32.972Z,5.20
2019-03-18T00:38:07.650Z,5.00
2019-03-18T00:40:39.849Z,5.10
2019-03-18T00:43:10.228Z,5.10
2019-03-18T00:45:41.374Z,5.00
2019-03-18T00:48:11.897Z,5.00
2019-03-18T00:50:42.267Z,5.10
2019-03-18T00:53:13.019Z,5.10
2019-03-18T00:55:43.575Z,5.00
2019-03-18T00:58:14.240Z,4.90
2019-03-18T01:00:45.321Z,5.00
2019-03-18T01:03:15.695Z,5.00
2019-03-18T01:05:46.170Z,5.00
2019-03-18T01:08:18.599Z,5.00
2019-03-18T01:10:50.353Z,5.10
2019-03-18T01:13:20.734Z,5.10
2019-03-18T01:15:54.171Z,5.10
2019-03-18T01:21:06.295Z,5.20
2019-03-18T01:23:36.945Z,5.20
2019-03-18T01:26:08.394Z,5.30
2019-03-18T01:28:39.549Z,5.30
2019-03-18T01:31:10.734Z,5.20
2019-03-18T01:33:41.325Z,5.20
2019-03-18T01:36:12.468Z,5.40
2019-03-18T01:38:43.735Z,5.30
2019-03-18T01:41:14.121Z,5.20
2019-03-18T01:43:44.494Z,5.20
2019-03-18T01:46:15.080Z,5.20
2019-03-18T01:48:47.350Z,5.20
2019-03-18T01:51:17.737Z,5.10
2019-03-18T01:53:50.470Z,5.00
2019-03-18T01:56:21.746Z,5.00
2019-03-18T01:58:52.352Z,4.90
2019-03-18T02:01:23.874Z,5.00
2019-03-18T02:03:54.239Z,5.00
2019-03-18T02:06:24.735Z,4.90
2019-03-18T02:08:55.262Z,4.90
2019-03-18T02:11:25.686Z,5.00
2019-03-18T02:13:56.070Z,5.10
2019-03-18T02:16:26.496Z,5.00
2019-03-18T02:18:56.876Z,5.00
2019-03-18T02:21:27.529Z,5.00
2019-03-18T02:23:58.725Z,4.90
2019-03-18T02:26:32.158Z,4.90
2019-03-18T02:29:02.591Z,4.90
2019-03-18T02:31:32.981Z,4.90
2019-03-18T02:34:10.712Z,4.90
2019-03-18T02:36:41.038Z,4.80
2019-03-18T02:39:11.410Z,4.90
2019-03-18T02:41:42.238Z,4.80
2019-03-18T02:44:12.620Z,4.80
2019-03-18T02:46:42.999Z,4.90
2019-03-18T02:49:13.373Z,4.90
2019-03-18T02:51:43.798Z,4.90
2019-03-18T02:54:14.177Z,4.90
2019-03-18T02:56:44.640Z,4.70
2019-03-18T02:59:15.260Z,4.80
2019-03-18T03:01:53.216Z,4.80
2019-03-18T03:04:25.718Z,4.70
2019-03-18T03:06:57.069Z,4.70
2019-03-18T03:09:27.439Z,4.70
2019-03-18T03:11:58.111Z,4.70
2019-03-18T03:14:28.480Z,4.60
2019-03-18T03:16:58.878Z,4.70
2019-03-18T03:19:29.307Z,4.80
2019-03-18T03:21:59.561Z,4.60
2019-03-18T03:24:29.992Z,4.60
2019-03-18T03:27:00.405Z,4.60
2019-03-18T03:29:53.163Z,4.70
2019-03-18T03:32:23.602Z,4.70
2019-03-18T03:34:53.933Z,4.70
2019-03-18T03:37:25.729Z,4.60
2019-03-18T03:39:56.178Z,4.60
2019-03-18T03:42:26.681Z,4.70
2019-03-18T03:45:04.503Z,4.60
2019-03-18T03:47:34.950Z,4.70
2019-03-18T03:50:07.381Z,4.70
2019-03-18T03:52:38.447Z,4.70
2019-03-18T03:55:11.935Z,4.70
2019-03-18T03:57:42.656Z,4.70
2019-03-18T04:00:16.442Z,4.70
2019-03-18T04:02:47.760Z,4.70
2019-03-18T04:05:18.232Z,4.70
2019-03-18T04:07:48.613Z,4.70
2019-03-18T04:10:23.084Z,4.70
2019-03-18T04:12:53.506Z,5.00
2019-03-18T04:15:24.967Z,5.00
2019-03-18T04:17:58.164Z,4.90
2019-03-18T04:20:29.613Z,4.90
2019-03-18T04:23:00.743Z,5.00
2019-03-18T04:25:32.183Z,4.80
2019-03-18T04:28:02.555Z,4.80
2019-03-18T04:30:32.871Z,4.80
2019-03-18T04:33:04.100Z,4.80
2019-03-18T04:35:35.329Z,4.90
2019-03-18T04:38:05.558Z,4.90
2019-03-18T04:40:36.207Z,5.10
2019-03-18T04:43:07.361Z,5.00
2019-03-18T04:45:37.960Z,4.90
2019-03-18T04:48:08.346Z,5.00
2019-03-18T04:50:39.801Z,5.10
2019-03-18T04:53:16.320Z,5.00
2019-03-18T04:55:47.511Z,5.00
2019-03-18T04:58:22.189Z,5.00
2019-03-18T05:00:53.407Z,5.10
2019-03-18T05:03:43.094Z,5.10
2019-03-18T05:08:55.558Z,5.00
2019-03-18T05:11:27.001Z,5.00
2019-03-18T05:13:58.293Z,5.00
2019-03-18T05:16:29.316Z,5.00
2019-03-18T05:18:59.733Z,5.00
2019-03-18T05:21:30.773Z,4.80
2019-03-18T05:24:01.151Z,4.90
2019-03-18T05:26:31.578Z,5.00
2019-03-18T05:29:02.147Z,5.00
2019-03-18T05:31:33.353Z,5.00
2019-03-18T05:34:04.879Z,5.00
2019-03-18T05:36:35.239Z,5.00
2019-03-18T05:39:05.615Z,5.00
2019-03-18T05:41:35.986Z,5.00
2019-03-18T05:44:08.081Z,5.00
2019-03-18T05:46:38.018Z,5.00
2019-03-18T05:49:09.214Z,5.10
2019-03-18T05:51:59.012Z,5.10
2019-03-18T05:54:29.379Z,5.10
2019-03-18T05:57:00.181Z,5.10
2019-03-18T05:59:30.607Z,5.10
2019-03-18T06:02:00.984Z,5.10
2019-03-18T06:04:32.445Z,5.10
2019-03-18T06:07:02.870Z,5.00
2019-03-18T06:09:33.241Z,5.00
2019-03-18T06:12:03.613Z,5.00
2019-03-18T06:14:34.045Z,5.00
2019-03-18T06:17:04.434Z,5.00
2019-03-18T06:19:34.809Z,5.00
2019-03-18T06:22:07.652Z,5.10
2019-03-18T06:24:39.826Z,5.10
2019-03-18T06:27:11.007Z,5.10
2019-03-18T06:29:46.551Z,5.10
2019-03-18T06:32:23.980Z,5.00
2019-03-18T06:34:53.674Z,5.10
2019-03-18T06:37:24.046Z,5.90
2019-03-18T06:39:55.260Z,5.50
2019-03-18T06:42:25.645Z,5.40
2019-03-18T06:44:59.026Z,5.40
2019-03-18T06:47:29.406Z,5.40
2019-03-18T06:49:59.722Z,5.40
2019-03-18T06:52:32.267Z,5.30
2019-03-18T06:55:04.886Z,5.30
2019-03-18T06:57:35.317Z,5.40
2019-03-18T07:00:11.821Z,5.40
2019-03-18T07:02:42.194Z,5.40
2019-03-18T07:05:12.594Z,5.40
2019-03-18T07:07:43.049Z,5.40
2019-03-18T07:10:16.111Z,5.40
2019-03-18T07:12:46.427Z,5.50
2019-03-18T07:15:16.843Z,5.50
2019-03-18T07:17:47.929Z,5.50
2019-03-18T07:20:18.304Z,5.60
2019-03-18T07:22:49.533Z,5.70
2019-03-18T07:25:20.092Z,5.70
2019-03-18T07:27:50.510Z,5.70
2019-03-18T07:30:20.893Z,5.70
2019-03-18T07:32:51.271Z,6.80
2019-03-18T07:35:22.417Z,6.10
2019-03-18T07:37:52.805Z,6.10
2019-03-18T07:40:23.137Z,6.10
2019-03-18T07:42:53.642Z,6.00
2019-03-18T07:45:24.207Z,6.40
2019-03-18T07:47:55.357Z,6.20
2019-03-18T07:50:27.978Z,6.30
2019-03-18T07:53:00.412Z,6.30
2019-03-18T07:55:31.540Z,6.30
2019-03-18T07:58:01.929Z,6.30
2019-03-18T08:00:34.345Z,6.30
2019-03-18T08:03:04.799Z,6.50
2019-03-18T08:05:35.208Z,6.50
2019-03-18T08:08:05.606Z,6.60
2019-03-18T08:10:36.044Z,6.70
2019-03-18T08:13:08.127Z,6.70
2019-03-18T08:15:38.505Z,6.80
2019-03-18T08:18:28.285Z,6.80
2019-03-18T08:20:58.665Z,6.80
2019-03-18T08:23:29.239Z,6.90
2019-03-18T08:26:01.706Z,6.90
2019-03-18T08:28:32.092Z,6.90
2019-03-18T08:31:03.433Z,7.00
2019-03-18T08:33:33.840Z,6.90
2019-03-18T08:36:04.238Z,6.90
2019-03-18T08:38:34.608Z,7.00
2019-03-18T08:41:07.133Z,7.00
2019-03-18T08:43:37.591Z,7.10
2019-03-18T08:46:08.289Z,7.20
2019-03-18T08:48:38.755Z,7.20
2019-03-18T08:51:09.156Z,7.20
2019-03-18T08:53:39.538Z,7.20
2019-03-18T08:56:09.927Z,7.30
2019-03-18T08:58:59.725Z,7.30
2019-03-18T09:01:30.112Z,7.40
2019-03-18T09:04:00.503Z,7.50
2019-03-18T09:06:31.728Z,7.70
2019-03-18T09:09:02.170Z,7.70
2019-03-18T09:11:32.478Z,7.90
2019-03-18T09:14:03.100Z,8.00
2019-03-18T09:19:16.713Z,8.10
2019-03-18T09:21:47.092Z,8.20
2019-03-18T09:24:17.476Z,8.00
2019-03-18T09:26:47.929Z,8.00
2019-03-18T09:29:38.781Z,7.90
2019-03-18T09:32:09.124Z,7.90
2019-03-18T09:34:40.454Z,7.90
2019-03-18T09:37:10.938Z,7.90
2019-03-18T09:39:41.836Z,8.00
2019-03-18T09:42:12.215Z,8.00
2019-03-18T09:44:43.105Z,7.90
2019-03-18T09:47:14.248Z,8.00
2019-03-18T09:49:44.630Z,8.00
2019-03-18T09:52:15.088Z,8.00
2019-03-18T09:54:45.504Z,8.10
2019-03-18T09:57:25.475Z,8.10
2019-03-18T09:59:46.622Z,8.10
2019-03-18T10:02:23.186Z,8.00
2019-03-18T10:04:57.976Z,7.90
2019-03-18T10:07:29.598Z,8.20
2019-03-18T10:09:59.973Z,8.20
2019-03-18T10:12:30.375Z,8.30
2019-03-18T10:15:00.802Z,8.30
2019-03-18T10:17:31.900Z,8.20
2019-03-18T10:20:03.323Z,8.20
2019-03-18T10:22:35.941Z,8.20
2019-03-18T10:25:04.383Z,8.20
2019-03-18T10:27:34.383Z,8.30
2019-03-18T10:30:05.582Z,8.50
2019-03-18T10:32:55.283Z,8.50
2019-03-18T10:35:25.748Z,8.70
2019-03-18T10:37:56.264Z,8.90
2019-03-18T10:40:26.603Z,9.00
2019-03-18T10:42:57.015Z,9.00
2019-03-18T10:45:27.452Z,8.90
2019-03-18T10:47:58.629Z,9.00
2019-03-18T10:50:29.961Z,9.20
2019-03-18T10:53:00.321Z,9.20
2019-03-18T10:55:30.909Z,9.20
2019-03-18T10:58:24.139Z,9.40
2019-03-18T11:00:54.615Z,9.40
2019-03-18T11:03:24.930Z,9.10
2019-03-18T11:05:55.389Z,9.00
2019-03-18T11:08:25.832Z,9.00
2019-03-18T11:10:57.274Z,9.10
2019-03-18T11:13:27.892Z,9.10
2019-03-18T11:15:58.291Z,9.10
2019-03-18T11:18:28.675Z,9.20
2019-03-18T11:20:59.562Z,9.20
2019-03-18T11:23:29.971Z,9.30
2019-03-18T11:26:00.357Z,9.30
2019-03-18T11:28:30.791Z,9.30
2019-03-18T11:31:01.182Z,9.50
2019-03-18T11:33:31.576Z,9.40
2019-03-18T11:36:02.789Z,9.40
2019-03-18T11:38:33.171Z,9.40
2019-03-18T11:41:03.565Z,9.40
2019-03-18T11:43:33.963Z,9.40
2019-03-18T11:46:04.466Z,9.50
2019-03-18T11:48:35.051Z,9.50
2019-03-18T11:51:05.439Z,9.50
2019-03-18T11:53:55.310Z,9.50
2019-03-18T11:56:25.633Z,9.70
2019-03-18T11:58:56.026Z,9.70
2019-03-18T12:01:26.602Z,9.70
2019-03-18T12:04:02.159Z,9.70
2019-03-18T12:06:54.228Z,9.80
2019-03-18T12:09:24.625Z,9.70
2019-03-18T12:12:02.153Z,9.70
2019-03-18T12:14:33.361Z,9.80
2019-03-18T12:17:25.171Z,9.80
2019-03-18T12:19:57.661Z,9.80
2019-03-18T12:22:47.435Z,10.00
2019-03-18T12:25:19.989Z,10.00
2019-03-18T12:27:50.422Z,9.90
2019-03-18T12:33:10.200Z,9.90
2019-03-18T12:35:41.305Z,10.10
2019-03-18T12:38:11.637Z,10.10
2019-03-18T12:40:42.055Z,10.10
2019-03-18T12:43:12.747Z,10.00
2019-03-18T12:45:43.081Z,9.90
2019-03-18T12:48:14.015Z,9.90
2019-03-18T12:50:55.665Z,10.00
2019-03-18T12:53:16.783Z,10.20
2019-03-18T12:55:47.208Z,10.20
2019-03-18T12:58:18.379Z,10.30
2019-03-18T13:00:48.707Z,10.30
2019-03-18T13:03:19.352Z,10.30
2019-03-18T13:05:49.687Z,10.50
2019-03-18T13:08:21.094Z,10.50
2019-03-18T13:10:52.305Z,10.60
2019-03-18T13:13:22.944Z,10.50
2019-03-18T13:15:53.581Z,10.50
2019-03-18T13:18:24.163Z,10.60
2019-03-18T13:21:07.095Z,10.60
2019-03-18T13:23:24.993Z,10.50
2019-03-18T13:25:56.235Z,10.70
2019-03-18T13:28:27.403Z,10.70
2019-03-18T13:30:57.773Z,10.70
2019-03-18T13:33:29.342Z,10.60
2019-03-18T13:35:59.735Z,10.50
2019-03-18T13:38:38.563Z,10.40
2019-03-18T13:41:15.084Z,10.40
2019-03-18T13:43:46.501Z,10.40
2019-03-18T13:46:18.587Z,10.40
2019-03-18T13:48:47.277Z,10.40
2019-03-18T13:51:21.238Z,10.50
2019-03-18T13:53:48.908Z,10.50
2019-03-18T13:56:19.239Z,10.50
2019-03-18T13:58:55.373Z,10.40
2019-03-18T14:01:25.811Z,10.30
2019-03-18T14:03:56.198Z,10.20
2019-03-18T14:06:26.588Z,10.10
2019-03-18T14:08:56.949Z,10.20
2019-03-18T14:11:28.108Z,10.10
2019-03-18T14:13:59.461Z,10.00
2019-03-18T14:16:29.898Z,10.00
2019-03-18T14:19:00.300Z,10.00
2019-03-18T14:21:33.443Z,10.10
2019-03-18T14:24:08.202Z,10.00
2019-03-18T14:26:38.581Z,10.10
2019-03-18T14:29:09.024Z,10.10
2019-03-18T14:31:39.626Z,10.10
2019-03-18T14:34:09.952Z,10.10
2019-03-18T14:36:40.474Z,10.10
2019-03-18T14:39:11.109Z,10.10
2019-03-18T14:41:46.680Z,10.00
2019-03-18T14:44:17.063Z,10.00
2019-03-18T14:46:47.503Z,9.90
2019-03-18T14:49:17.943Z,9.80
2019-03-18T14:51:48.283Z,9.80
2019-03-18T14:54:18.756Z,9.90
2019-03-18T14:56:49.498Z,10.00
2019-03-18T14:59:19.897Z,10.10
2019-03-18T15:01:51.512Z,10.10
2019-03-18T15:04:22.042Z,10.00
2019-03-18T15:06:52.426Z,10.10
2019-03-18T15:09:22.818Z,10.10
2019-03-18T15:11:53.468Z,10.10
2019-03-18T15:14:27.069Z,10.00
2019-03-18T15:16:57.640Z,10.00
2019-03-18T15:19:27.960Z,9.80
2019-03-18T15:21:58.934Z,9.70
2019-03-18T15:24:33.045Z,9.40
2019-03-18T15:27:03.418Z,9.20
2019-03-18T15:29:33.985Z,9.10
2019-03-18T15:32:06.907Z,8.70
2019-03-18T15:34:37.719Z,8.90
2019-03-18T15:37:08.288Z,8.90
2019-03-18T15:39:44.885Z,9.00
2019-03-18T15:42:15.280Z,9.00
2019-03-18T15:44:45.650Z,9.00
2019-03-18T15:47:16.018Z,9.20
2019-03-18T15:49:46.591Z,9.20
2019-03-18T15:52:16.974Z,9.30
2019-03-18T15:54:53.838Z,9.30
2019-03-18T15:57:29.143Z,9.30
2019-03-18T15:59:52.628Z,9.30
2019-03-18T16:02:23.073Z,9.40
2019-03-18T16:04:54.200Z,9.30
2019-03-18T16:07:25.299Z,9.20
2019-03-18T16:09:55.676Z,9.20
2019-03-18T16:12:26.027Z,9.20
2019-03-18T16:14:56.622Z,9.90
2019-03-18T16:17:27.046Z,10.20
2019-03-18T16:19:58.261Z,9.50
2019-03-18T16:22:48.022Z,9.50
2019-03-18T16:25:24.665Z,9.50
2019-03-18T16:27:54.982Z,9.50
2019-03-18T16:30:26.143Z,9.50
2019-03-18T16:32:57.284Z,9.50
2019-03-18T16:35:29.665Z,9.50
2019-03-18T16:38:00.246Z,9.50
2019-03-18T16:40:32.715Z,9.40
2019-03-18T16:45:47.394Z,8.90
2019-03-18T16:48:17.781Z,8.70
2019-03-18T16:50:48.211Z,8.80
2019-03-18T16:53:20.986Z,8.50
2019-03-18T16:56:08.832Z,8.50
2019-03-18T16:58:39.218Z,8.40
2019-03-18T17:01:09.663Z,8.50
2019-03-18T17:03:40.836Z,8.70
2019-03-18T17:06:12.283Z,8.70
2019-03-18T17:08:43.543Z,8.60
2019-03-18T17:11:18.083Z,8.70
2019-03-18T17:14:09.036Z,9.40
2019-03-18T17:16:39.483Z,9.80
2019-03-18T17:19:09.865Z,9.90
2019-03-18T17:21:40.385Z,9.60
2019-03-18T17:24:10.706Z,9.10
2019-03-18T17:26:41.155Z,9.00
2019-03-18T17:29:11.478Z,8.80
2019-03-18T17:31:41.978Z,8.60
2019-03-18T17:34:12.452Z,8.60
2019-03-18T17:36:42.824Z,8.60
2019-03-18T17:39:19.592Z,8.70
2019-03-18T17:41:52.088Z,8.70
2019-03-18T17:44:22.630Z,8.50
2019-03-18T17:46:53.213Z,8.60
2019-03-18T17:49:23.669Z,8.50
2019-03-18T17:51:54.029Z,8.40
2019-03-18T17:54:24.597Z,8.50
2019-03-18T17:57:06.709Z,8.30
2019-03-18T17:59:25.418Z,8.30
2019-03-18T18:01:56.031Z,8.40
2019-03-18T18:04:26.757Z,8.40
2019-03-18T18:06:57.116Z,8.40
2019-03-18T18:09:27.678Z,8.40
2019-03-18T18:11:58.133Z,8.30
2019-03-18T18:14:28.443Z,8.30
2019-03-18T18:16:58.802Z,8.20
2019-03-18T18:19:29.169Z,8.20
2019-03-18T18:21:59.541Z,8.30
2019-03-18T18:24:36.609Z,8.50
2019-03-18T18:27:14.201Z,8.50
2019-03-18T18:29:44.584Z,8.30
2019-03-18T18:32:15.794Z,8.30
2019-03-18T18:34:46.108Z,8.30
2019-03-18T18:37:35.916Z,8.20
2019-03-18T18:40:17.133Z,8.10
2019-03-18T18:42:48.672Z,8.10
2019-03-18T18:45:21.336Z,8.10
2019-03-18T18:47:51.058Z,8.00
2019-03-18T18:50:21.495Z,8.00
2019-03-18T18:52:51.915Z,8.20
2019-03-18T18:55:23.005Z,7.90
2019-03-18T18:57:53.384Z,7.90
2019-03-18T19:00:23.828Z,8.00
2019-03-18T19:02:54.288Z,7.90
2019-03-18T19:05:28.697Z,7.80
2019-03-18T19:07:59.173Z,7.90
2019-03-18T19:10:29.505Z,7.90
2019-03-18T19:12:59.970Z,7.90
2019-03-18T19:18:14.847Z,7.90
2019-03-18T19:20:45.230Z,7.90
2019-03-18T19:23:15.610Z,7.80
2019-03-18T19:25:46.030Z,7.80
2019-03-18T19:28:16.410Z,7.90
2019-03-18T19:30:46.789Z,7.90
2019-03-18T19:33:17.407Z,7.80
2019-03-18T19:35:48.563Z,7.60
2019-03-18T19:38:18.894Z,7.60
2019-03-18T19:40:49.505Z,7.60
2019-03-18T19:43:20.594Z,7.70
2019-03-18T19:45:50.979Z,7.60
2019-03-18T19:48:22.159Z,7.60
2019-03-18T19:50:56.646Z,7.60
2019-03-18T19:53:27.027Z,7.60
2019-03-18T19:55:57.411Z,7.60
2019-03-18T19:58:29.019Z,7.50
2019-03-18T20:01:09.839Z,7.60
2019-03-18T20:03:38.731Z,7.50
2019-03-18T20:06:09.097Z,7.40
2019-03-18T20:08:39.532Z,7.40
2019-03-18T20:11:09.878Z,7.40
2019-03-18T20:13:40.260Z,7.80
2019-03-18T20:16:10.837Z,7.70
2019-03-18T20:18:42.032Z,7.70
2019-03-18T20:21:14.187Z,7.60
2019-03-18T20:23:44.499Z,7.60
2019-03-18T20:26:15.948Z,7.30
2019-03-18T20:28:46.271Z,7.30
2019-03-18T20:31:25.303Z,7.20
2019-03-18T20:33:47.180Z,7.20
2019-03-18T20:36:17.788Z,7.30
2019-03-18T20:38:49.191Z,7.20
2019-03-18T20:41:19.573Z,7.20
2019-03-18T20:43:57.345Z,7.20
2019-03-18T20:46:27.723Z,7.20
2019-03-18T20:48:58.294Z,7.10
2019-03-18T20:51:29.688Z,7.10
2019-03-18T20:54:12.052Z,7.10
2019-03-18T20:56:37.833Z,7.10
2019-03-18T20:59:08.386Z,7.10
2019-03-18T21:01:39.027Z,7.00
2019-03-18T21:04:09.826Z,7.00
2019-03-18T21:06:40.222Z,7.00
2019-03-18T21:09:14.789Z,6.90
2019-03-18T21:11:45.291Z,7.00
2019-03-18T21:14:17.905Z,6.90
2019-03-18T21:16:48.565Z,6.90
2019-03-18T21:19:19.661Z,6.90
2019-03-18T21:21:50.076Z,6.90
2019-03-18T21:24:39.811Z,6.80
2019-03-18T21:27:10.457Z,6.80
2019-03-18T21:29:41.023Z,6.80
2019-03-18T21:32:11.467Z,6.80
2019-03-18T21:34:41.862Z,6.80
2019-03-18T21:37:15.364Z,6.80
2019-03-18T21:39:53.065Z,6.70
2019-03-18T21:42:27.596Z,6.70
2019-03-18T21:44:57.986Z,6.80
2019-03-18T21:47:28.421Z,6.80
2019-03-18T21:49:58.907Z,6.80
2019-03-18T21:52:29.296Z,6.90
2019-03-18T21:55:02.547Z,6.80
2019-03-18T21:57:37.383Z,6.70
2019-03-18T22:00:22.003Z,6.70
2019-03-18T22:02:52.774Z,6.60
2019-03-18T22:05:23.960Z,6.70
2019-03-18T22:08:01.810Z,6.70
2019-03-18T22:10:32.952Z,6.60
2019-03-18T22:13:04.097Z,6.50
2019-03-18T22:15:35.567Z,6.50
2019-03-18T22:18:05.959Z,6.40
2019-03-18T22:20:36.315Z,6.50
2019-03-18T22:23:06.767Z,6.40
2019-03-18T22:25:37.126Z,6.40
2019-03-18T22:28:08.861Z,6.40
2019-03-18T22:30:43.326Z,6.40
2019-03-18T22:33:13.702Z,6.40
2019-03-18T22:35:44.138Z,6.50
2019-03-18T22:38:19.754Z,6.40
2019-03-18T22:40:50.834Z,6.30
2019-03-18T22:43:41.673Z,6.30
2019-03-18T22:46:13.081Z,6.30
2019-03-18T22:48:43.592Z,6.30
2019-03-18T22:51:13.911Z,6.20
2019-03-18T22:53:44.323Z,6.10
2019-03-18T22:56:14.712Z,6.20
2019-03-18T22:58:46.130Z,6.20
2019-03-18T23:01:16.632Z,6.20
2019-03-18T23:03:47.083Z,6.10
2019-03-18T23:06:17.552Z,6.20
2019-03-18T23:08:49.045Z,6.10
2019-03-18T23:11:19.840Z,6.20
2019-03-18T23:13:50.939Z,6.10
2019-03-18T23:16:21.365Z,6.10
2019-03-18T23:18:51.737Z,6.10
2019-03-18T23:21:22.127Z,6.20
2019-03-18T23:23:52.561Z,6.00
2019-03-18T23:26:22.876Z,6.00
2019-03-18T23:28:53.269Z,6.10
2019-03-18T23:31:23.994Z,6.00
2019-03-18T23:36:38.569Z,6.00
2019-03-18T23:39:09.189Z,5.90
2019-03-18T23:41:39.778Z,6.00
2019-03-18T23:44:10.135Z,6.00
2019-03-18T23:46:59.826Z,6.10
2019-03-18T23:49:30.254Z,6.10
2019-03-18T23:52:00.640Z,6.00
2019-03-18T23:54:31.233Z,5.90
2019-03-18T23:57:01.741Z,5.90
2019-03-18T23:59:32.131Z,6.00
